KBPT/BPT METAR and TAF weather

Enter ICAO airport designator
Station Type Date Time Source
KBPT METAR 2020/01/22 11:53 UTC NOAA

KBPT 221153Z 09014G20KT 10SM SCT110 07/02 A3023 RMK AO2 SLP237 T00720017 10083 20067 58026


Station Type Date Time Source
KBPT Decoded METAR 2020/01/22 11:53 UTC NOAA

SOUTHEAST TEXAS RGNL AIRPORT, TX, United States (KBPT) 29-95N 094-08W 5M
Jan 22, 2020 - 06:53 AM EST / 2020.01.22 1153 UTC
Wind: from the E (090 degrees) at 16 MPH (14 KT) gusting to 23 MPH (20 KT):0
Visibility: 10 mile(s):0
Sky conditions: partly cloudy
Temperature: 45.0 F (7.2 C)
Dew Point: 35.1 F (1.7 C)
Relative Humidity: 68%
Pressure (altimeter): 30.23 in. Hg (1023 hPa)
Pressure tendency: 0.08 inches (2.6 hPa) lower than three hours ago
ob: KBPT 221153Z 09014G20KT 10SM SCT110 07/02 A3023 RMK AO2 SLP237 T00720017 10083 20067 58026
cycle: 12

Station Type Date Time Source
KBPT TAF 2020/01/22 12:48 UTC NOAA

TAF KBPT 221144Z 2212/2312 08011KT P6SM OVC200
FM221500 11015G22KT P6SM VCSH SCT025 OVC080
FM221700 11017G24KT 5SM -SHRA BR OVC015
FM222200 12020G25KT 5SM -SHRA BR OVC007
FM230600 14010KT 5SM -SHRA BR OVC007

Example: see airport list